sensor_id;sensor_type;location;lat;lon;timestamp;pressure;altitude;pressure_sealevel;temperature
20736;BMP180;10528;52.124;5.196;2023-06-24T00:00:41;102404.00;;;25.90
20736;BMP180;10528;52.124;5.196;2023-06-24T00:03:09;102410.00;;;25.90
20736;BMP180;10528;52.124;5.196;2023-06-24T00:05:36;102401.00;;;25.90
20736;BMP180;10528;52.124;5.196;2023-06-24T00:08:07;102404.00;;;25.80
20736;BMP180;10528;52.124;5.196;2023-06-24T00:10:34;102399.00;;;25.80
20736;BMP180;10528;52.124;5.196;2023-06-24T00:13:01;102400.00;;;25.80
20736;BMP180;10528;52.124;5.196;2023-06-24T00:15:29;102403.00;;;25.80
20736;BMP180;10528;52.124;5.196;2023-06-24T00:17:55;102411.00;;;25.70
20736;BMP180;10528;52.124;5.196;2023-06-24T00:20:32;102412.00;;;25.70
20736;BMP180;10528;52.124;5.196;2023-06-24T00:23:00;102404.00;;;25.70
20736;BMP180;10528;52.124;5.196;2023-06-24T00:25:27;102406.00;;;25.70
20736;BMP180;10528;52.124;5.196;2023-06-24T00:27:54;102400.00;;;25.70
20736;BMP180;10528;52.124;5.196;2023-06-24T00:30:22;102389.00;;;25.60
20736;BMP180;10528;52.124;5.196;2023-06-24T00:32:50;102390.00;;;25.60
20736;BMP180;10528;52.124;5.196;2023-06-24T00:35:17;102391.00;;;25.60
20736;BMP180;10528;52.124;5.196;2023-06-24T00:37:45;102389.00;;;25.50
20736;BMP180;10528;52.124;5.196;2023-06-24T00:40:13;102390.00;;;25.50
20736;BMP180;10528;52.124;5.196;2023-06-24T00:42:46;102394.00;;;25.50
20736;BMP180;10528;52.124;5.196;2023-06-24T00:45:13;102387.00;;;25.50
20736;BMP180;10528;52.124;5.196;2023-06-24T00:47:41;102391.00;;;25.40
20736;BMP180;10528;52.124;5.196;2023-06-24T00:50:09;102393.00;;;25.40
20736;BMP180;10528;52.124;5.196;2023-06-24T00:52:39;102398.00;;;25.40
20736;BMP180;10528;52.124;5.196;2023-06-24T00:55:15;102408.00;;;25.40
20736;BMP180;10528;52.124;5.196;2023-06-24T00:57:44;102397.00;;;25.30
20736;BMP180;10528;52.124;5.196;2023-06-24T01:00:14;102399.00;;;25.30
20736;BMP180;10528;52.124;5.196;2023-06-24T01:02:43;102393.00;;;25.30
20736;BMP180;10528;52.124;5.196;2023-06-24T01:05:11;102381.00;;;25.20
20736;BMP180;10528;52.124;5.196;2023-06-24T01:07:39;102389.00;;;25.20
20736;BMP180;10528;52.124;5.196;2023-06-24T01:10:08;102377.00;;;25.20
20736;BMP180;10528;52.124;5.196;2023-06-24T01:12:40;102388.00;;;25.20
20736;BMP180;10528;52.124;5.196;2023-06-24T01:15:09;102389.00;;;25.10
20736;BMP180;10528;52.124;5.196;2023-06-24T01:18:01;102381.00;;;25.10
20736;BMP180;10528;52.124;5.196;2023-06-24T01:21:14;102374.00;;;25.00
20736;BMP180;10528;52.124;5.196;2023-06-24T01:33:12;102377.00;;;24.80
20736;BMP180;10528;52.124;5.196;2023-06-24T01:35:43;102381.00;;;24.80
20736;BMP180;10528;52.124;5.196;2023-06-24T01:38:27;102370.00;;;24.80
20736;BMP180;10528;52.124;5.196;2023-06-24T01:40:56;102372.00;;;24.80
20736;BMP180;10528;52.124;5.196;2023-06-24T01:43:25;102365.00;;;24.70
20736;BMP180;10528;52.124;5.196;2023-06-24T01:45:55;102365.00;;;24.70
20736;BMP180;10528;52.124;5.196;2023-06-24T01:48:35;102373.00;;;24.70
20736;BMP180;10528;52.124;5.196;2023-06-24T01:51:10;102371.00;;;24.60
20736;BMP180;10528;52.124;5.196;2023-06-24T01:53:46;102376.00;;;24.60
20736;BMP180;10528;52.124;5.196;2023-06-24T01:56:16;102373.00;;;24.60
20736;BMP180;10528;52.124;5.196;2023-06-24T01:58:47;102375.00;;;24.50
20736;BMP180;10528;52.124;5.196;2023-06-24T02:01:15;102371.00;;;24.50
20736;BMP180;10528;52.124;5.196;2023-06-24T02:03:44;102371.00;;;24.50
20736;BMP180;10528;52.124;5.196;2023-06-24T02:06:13;102364.00;;;24.50
20736;BMP180;10528;52.124;5.196;2023-06-24T02:08:43;102355.00;;;24.40
20736;BMP180;10528;52.124;5.196;2023-06-24T02:11:12;102351.00;;;24.40
20736;BMP180;10528;52.124;5.196;2023-06-24T02:13:42;102349.00;;;24.40
20736;BMP180;10528;52.124;5.196;2023-06-24T02:16:17;102356.00;;;24.30
20736;BMP180;10528;52.124;5.196;2023-06-24T02:18:45;102355.00;;;24.30
20736;BMP180;10528;52.124;5.196;2023-06-24T02:21:12;102360.00;;;24.30
20736;BMP180;10528;52.124;5.196;2023-06-24T02:23:40;102363.00;;;24.20
20736;BMP180;10528;52.124;5.196;2023-06-24T02:26:09;102353.00;;;24.20
20736;BMP180;10528;52.124;5.196;2023-06-24T02:28:38;102346.00;;;24.20
20736;BMP180;10528;52.124;5.196;2023-06-24T02:31:08;102352.00;;;24.20
20736;BMP180;10528;52.124;5.196;2023-06-24T02:33:36;102344.00;;;24.10
20736;BMP180;10528;52.124;5.196;2023-06-24T02:36:03;102340.00;;;24.10
20736;BMP180;10528;52.124;5.196;2023-06-24T02:38:30;102336.00;;;24.10
20736;BMP180;10528;52.124;5.196;2023-06-24T02:40:57;102338.00;;;24.10
20736;BMP180;10528;52.124;5.196;2023-06-24T02:43:25;102345.00;;;24.00
20736;BMP180;10528;52.124;5.196;2023-06-24T02:45:53;102340.00;;;24.00
20736;BMP180;10528;52.124;5.196;2023-06-24T02:48:21;102333.00;;;24.00
20736;BMP180;10528;52.124;5.196;2023-06-24T02:50:49;102334.00;;;24.00
20736;BMP180;10528;52.124;5.196;2023-06-24T02:53:17;102346.00;;;23.90
20736;BMP180;10528;52.124;5.196;2023-06-24T02:55:46;102342.00;;;23.90
20736;BMP180;10528;52.124;5.196;2023-06-24T02:58:14;102352.00;;;23.90
20736;BMP180;10528;52.124;5.196;2023-06-24T03:00:52;102349.00;;;23.90
20736;BMP180;10528;52.124;5.196;2023-06-24T03:03:28;102349.00;;;23.80
20736;BMP180;10528;52.124;5.196;2023-06-24T03:05:57;102329.00;;;23.80
20736;BMP180;10528;52.124;5.196;2023-06-24T03:08:28;102347.00;;;23.80
20736;BMP180;10528;52.124;5.196;2023-06-24T03:10:56;102330.00;;;23.80
20736;BMP180;10528;52.124;5.196;2023-06-24T03:13:26;102345.00;;;23.70
20736;BMP180;10528;52.124;5.196;2023-06-24T03:16:01;102338.00;;;23.70
20736;BMP180;10528;52.124;5.196;2023-06-24T03:18:32;102341.00;;;23.70
20736;BMP180;10528;52.124;5.196;2023-06-24T03:20:59;102333.00;;;23.70
20736;BMP180;10528;52.124;5.196;2023-06-24T03:23:29;102339.00;;;23.60
20736;BMP180;10528;52.124;5.196;2023-06-24T03:25:56;102343.00;;;23.60
20736;BMP180;10528;52.124;5.196;2023-06-24T03:28:23;102334.00;;;23.60
20736;BMP180;10528;52.124;5.196;2023-06-24T03:30:58;102334.00;;;23.60
20736;BMP180;10528;52.124;5.196;2023-06-24T03:33:26;102339.00;;;23.60
20736;BMP180;10528;52.124;5.196;2023-06-24T03:35:54;102343.00;;;23.60
20736;BMP180;10528;52.124;5.196;2023-06-24T03:38:25;102339.00;;;23.50
20736;BMP180;10528;52.124;5.196;2023-06-24T03:40:55;102338.00;;;23.50
20736;BMP180;10528;52.124;5.196;2023-06-24T03:43:22;102337.00;;;23.50
20736;BMP180;10528;52.124;5.196;2023-06-24T03:45:50;102345.00;;;23.50
20736;BMP180;10528;52.124;5.196;2023-06-24T03:48:17;102347.00;;;23.50
20736;BMP180;10528;52.124;5.196;2023-06-24T03:50:44;102342.00;;;23.50
20736;BMP180;10528;52.124;5.196;2023-06-24T03:53:11;102343.00;;;23.50
20736;BMP180;10528;52.124;5.196;2023-06-24T03:55:38;102332.00;;;23.40
20736;BMP180;10528;52.124;5.196;2023-06-24T03:58:05;102349.00;;;23.40
20736;BMP180;10528;52.124;5.196;2023-06-24T04:00:32;102346.00;;;23.40
20736;BMP180;10528;52.124;5.196;2023-06-24T04:02:59;102344.00;;;23.40
20736;BMP180;10528;52.124;5.196;2023-06-24T04:05:29;102342.00;;;23.40
20736;BMP180;10528;52.124;5.196;2023-06-24T04:07:56;102343.00;;;23.40
20736;BMP180;10528;52.124;5.196;2023-06-24T04:10:23;102337.00;;;23.40
20736;BMP180;10528;52.124;5.196;2023-06-24T04:12:50;102329.00;;;23.50
20736;BMP180;10528;52.124;5.196;2023-06-24T04:15:17;102345.00;;;23.40
20736;BMP180;10528;52.124;5.196;2023-06-24T04:17:44;102339.00;;;23.50
20736;BMP180;10528;52.124;5.196;2023-06-24T04:20:11;102348.00;;;23.50
20736;BMP180;10528;52.124;5.196;2023-06-24T04:22:41;102345.00;;;23.50
20736;BMP180;10528;52.124;5.196;2023-06-24T04:25:09;102336.00;;;23.50
20736;BMP180;10528;52.124;5.196;2023-06-24T04:27:36;102343.00;;;23.50
20736;BMP180;10528;52.124;5.196;2023-06-24T04:30:07;102348.00;;;23.50
20736;BMP180;10528;52.124;5.196;2023-06-24T04:32:34;102351.00;;;23.60
20736;BMP180;10528;52.124;5.196;2023-06-24T04:35:01;102356.00;;;23.60
20736;BMP180;10528;52.124;5.196;2023-06-24T04:37:29;102349.00;;;23.60
20736;BMP180;10528;52.124;5.196;2023-06-24T04:39:57;102356.00;;;23.70
20736;BMP180;10528;52.124;5.196;2023-06-24T04:42:24;102353.00;;;23.70
20736;BMP180;10528;52.124;5.196;2023-06-24T04:44:51;102353.00;;;23.80
20736;BMP180;10528;52.124;5.196;2023-06-24T04:47:18;102357.00;;;23.80
20736;BMP180;10528;52.124;5.196;2023-06-24T04:49:45;102347.00;;;23.80
20736;BMP180;10528;52.124;5.196;2023-06-24T04:52:13;102349.00;;;23.90
20736;BMP180;10528;52.124;5.196;2023-06-24T04:54:40;102347.00;;;23.90
20736;BMP180;10528;52.124;5.196;2023-06-24T04:57:30;102364.00;;;24.10
20736;BMP180;10528;52.124;5.196;2023-06-24T04:59:58;102354.00;;;24.30
20736;BMP180;10528;52.124;5.196;2023-06-24T05:02:25;102365.00;;;24.70
20736;BMP180;10528;52.124;5.196;2023-06-24T05:04:53;102352.00;;;25.20
20736;BMP180;10528;52.124;5.196;2023-06-24T05:07:20;102354.00;;;25.80
20736;BMP180;10528;52.124;5.196;2023-06-24T05:09:48;102364.00;;;26.40
20736;BMP180;10528;52.124;5.196;2023-06-24T05:12:15;102369.00;;;27.00
20736;BMP180;10528;52.124;5.196;2023-06-24T05:14:42;102367.00;;;27.50
20736;BMP180;10528;52.124;5.196;2023-06-24T05:17:09;102383.00;;;28.10
20736;BMP180;10528;52.124;5.196;2023-06-24T05:19:36;102382.00;;;28.60
20736;BMP180;10528;52.124;5.196;2023-06-24T05:22:03;102386.00;;;29.00
20736;BMP180;10528;52.124;5.196;2023-06-24T05:24:30;102385.00;;;29.40
20736;BMP180;10528;52.124;5.196;2023-06-24T05:27:05;102386.00;;;29.50
20736;BMP180;10528;52.124;5.196;2023-06-24T05:29:34;102384.00;;;29.60
20736;BMP180;10528;52.124;5.196;2023-06-24T05:32:01;102383.00;;;29.60
20736;BMP180;10528;52.124;5.196;2023-06-24T05:34:31;102377.00;;;29.80
20736;BMP180;10528;52.124;5.196;2023-06-24T05:36:58;102378.00;;;30.20
20736;BMP180;10528;52.124;5.196;2023-06-24T05:39:25;102385.00;;;30.60
20736;BMP180;10528;52.124;5.196;2023-06-24T05:41:52;102386.00;;;31.10
20736;BMP180;10528;52.124;5.196;2023-06-24T05:44:20;102391.00;;;31.50
20736;BMP180;10528;52.124;5.196;2023-06-24T05:46:47;102389.00;;;31.90
20736;BMP180;10528;52.124;5.196;2023-06-24T05:49:14;102395.00;;;32.30
20736;BMP180;10528;52.124;5.196;2023-06-24T05:51:41;102397.00;;;32.60
20736;BMP180;10528;52.124;5.196;2023-06-24T05:54:08;102398.00;;;32.90
20736;BMP180;10528;52.124;5.196;2023-06-24T05:56:35;102391.00;;;33.30
20736;BMP180;10528;52.124;5.196;2023-06-24T05:59:06;102392.00;;;33.60
20736;BMP180;10528;52.124;5.196;2023-06-24T06:01:33;102399.00;;;33.90
20736;BMP180;10528;52.124;5.196;2023-06-24T06:04:00;102398.00;;;34.20
20736;BMP180;10528;52.124;5.196;2023-06-24T06:06:27;102400.00;;;34.50
20736;BMP180;10528;52.124;5.196;2023-06-24T06:08:54;102405.00;;;34.80
20736;BMP180;10528;52.124;5.196;2023-06-24T06:11:21;102406.00;;;35.10
20736;BMP180;10528;52.124;5.196;2023-06-24T06:13:48;102403.00;;;35.30
20736;BMP180;10528;52.124;5.196;2023-06-24T06:16:15;102398.00;;;35.60
20736;BMP180;10528;52.124;5.196;2023-06-24T06:18:42;102394.00;;;35.90
20736;BMP180;10528;52.124;5.196;2023-06-24T06:21:09;102392.00;;;36.20
20736;BMP180;10528;52.124;5.196;2023-06-24T06:23:36;102394.00;;;36.50
20736;BMP180;10528;52.124;5.196;2023-06-24T06:26:03;102390.00;;;36.70
20736;BMP180;10528;52.124;5.196;2023-06-24T06:28:30;102407.00;;;37.00
20736;BMP180;10528;52.124;5.196;2023-06-24T06:30:56;102413.00;;;37.30
20736;BMP180;10528;52.124;5.196;2023-06-24T06:33:24;102413.00;;;37.50
20736;BMP180;10528;52.124;5.196;2023-06-24T06:35:50;102415.00;;;37.80
20736;BMP180;10528;52.124;5.196;2023-06-24T06:38:17;102414.00;;;38.10
20736;BMP180;10528;52.124;5.196;2023-06-24T06:40:44;102409.00;;;38.30
20736;BMP180;10528;52.124;5.196;2023-06-24T06:43:11;102417.00;;;38.50
20736;BMP180;10528;52.124;5.196;2023-06-24T06:45:38;102412.00;;;38.70
20736;BMP180;10528;52.124;5.196;2023-06-24T06:48:06;102421.00;;;39.00
20736;BMP180;10528;52.124;5.196;2023-06-24T06:50:36;102422.00;;;39.20
20736;BMP180;10528;52.124;5.196;2023-06-24T06:53:03;102420.00;;;39.50
20736;BMP180;10528;52.124;5.196;2023-06-24T06:55:30;102423.00;;;39.70
20736;BMP180;10528;52.124;5.196;2023-06-24T06:57:57;102421.00;;;40.00
20736;BMP180;10528;52.124;5.196;2023-06-24T07:00:23;102422.00;;;40.30
20736;BMP180;10528;52.124;5.196;2023-06-24T07:02:50;102430.00;;;40.60
20736;BMP180;10528;52.124;5.196;2023-06-24T07:05:17;102416.00;;;40.90
20736;BMP180;10528;52.124;5.196;2023-06-24T07:07:44;102421.00;;;41.10
20736;BMP180;10528;52.124;5.196;2023-06-24T07:10:12;102427.00;;;41.30
20736;BMP180;10528;52.124;5.196;2023-06-24T07:12:40;102425.00;;;41.50
20736;BMP180;10528;52.124;5.196;2023-06-24T07:15:07;102421.00;;;41.70
20736;BMP180;10528;52.124;5.196;2023-06-24T07:17:38;102427.00;;;41.80
20736;BMP180;10528;52.124;5.196;2023-06-24T07:20:05;102422.00;;;42.00
20736;BMP180;10528;52.124;5.196;2023-06-24T07:22:32;102427.00;;;42.20
20736;BMP180;10528;52.124;5.196;2023-06-24T07:24:59;102419.00;;;42.30
20736;BMP180;10528;52.124;5.196;2023-06-24T07:27:27;102428.00;;;42.50
20736;BMP180;10528;52.124;5.196;2023-06-24T07:29:54;102423.00;;;42.50
20736;BMP180;10528;52.124;5.196;2023-06-24T07:32:21;102432.00;;;42.70
20736;BMP180;10528;52.124;5.196;2023-06-24T07:34:48;102434.00;;;42.80
20736;BMP180;10528;52.124;5.196;2023-06-24T07:37:15;102430.00;;;43.00
20736;BMP180;10528;52.124;5.196;2023-06-24T07:39:51;102435.00;;;43.10
20736;BMP180;10528;52.124;5.196;2023-06-24T07:42:18;102433.00;;;43.20
20736;BMP180;10528;52.124;5.196;2023-06-24T07:44:49;102432.00;;;43.30
20736;BMP180;10528;52.124;5.196;2023-06-24T07:47:17;102421.00;;;43.50
20736;BMP180;10528;52.124;5.196;2023-06-24T07:49:45;102435.00;;;43.60
20736;BMP180;10528;52.124;5.196;2023-06-24T07:52:12;102432.00;;;43.60
20736;BMP180;10528;52.124;5.196;2023-06-24T07:54:40;102437.00;;;43.60
20736;BMP180;10528;52.124;5.196;2023-06-24T07:57:08;102434.00;;;43.60
20736;BMP180;10528;52.124;5.196;2023-06-24T07:59:35;102437.00;;;43.60
20736;BMP180;10528;52.124;5.196;2023-06-24T08:02:02;102428.00;;;43.70
20736;BMP180;10528;52.124;5.196;2023-06-24T08:04:28;102434.00;;;43.90
20736;BMP180;10528;52.124;5.196;2023-06-24T08:06:56;102437.00;;;44.00
20736;BMP180;10528;52.124;5.196;2023-06-24T08:09:23;102439.00;;;44.10
20736;BMP180;10528;52.124;5.196;2023-06-24T08:11:50;102433.00;;;44.10
20736;BMP180;10528;52.124;5.196;2023-06-24T08:14:17;102413.00;;;44.10
20736;BMP180;10528;52.124;5.196;2023-06-24T08:16:44;102425.00;;;44.10
20736;BMP180;10528;52.124;5.196;2023-06-24T08:19:12;102427.00;;;44.10
20736;BMP180;10528;52.124;5.196;2023-06-24T08:21:39;102425.00;;;44.00
20736;BMP180;10528;52.124;5.196;2023-06-24T08:24:06;102427.00;;;43.90
20736;BMP180;10528;52.124;5.196;2023-06-24T08:26:33;102420.00;;;43.80
20736;BMP180;10528;52.124;5.196;2023-06-24T08:29:00;102433.00;;;43.70
20736;BMP180;10528;52.124;5.196;2023-06-24T08:31:30;102432.00;;;43.50
20736;BMP180;10528;52.124;5.196;2023-06-24T08:33:59;102422.00;;;43.20
20736;BMP180;10528;52.124;5.196;2023-06-24T08:36:28;102424.00;;;43.00
20736;BMP180;10528;52.124;5.196;2023-06-24T08:38:58;102423.00;;;42.70
20736;BMP180;10528;52.124;5.196;2023-06-24T08:41:25;102425.00;;;42.50
20736;BMP180;10528;52.124;5.196;2023-06-24T08:43:53;102431.00;;;42.10
20736;BMP180;10528;52.124;5.196;2023-06-24T08:46:25;102442.00;;;41.80
20736;BMP180;10528;52.124;5.196;2023-06-24T08:52:08;102428.00;;;40.90
20736;BMP180;10528;52.124;5.196;2023-06-24T08:54:40;102423.00;;;40.50
20736;BMP180;10528;52.124;5.196;2023-06-24T08:57:07;102427.00;;;40.20
20736;BMP180;10528;52.124;5.196;2023-06-24T08:59:37;102426.00;;;39.90
20736;BMP180;10528;52.124;5.196;2023-06-24T09:02:05;102426.00;;;39.60
20736;BMP180;10528;52.124;5.196;2023-06-24T09:04:34;102422.00;;;39.30
20736;BMP180;10528;52.124;5.196;2023-06-24T09:07:01;102430.00;;;39.10
20736;BMP180;10528;52.124;5.196;2023-06-24T09:09:28;102426.00;;;38.80
20736;BMP180;10528;52.124;5.196;2023-06-24T09:12:00;102417.00;;;38.60
20736;BMP180;10528;52.124;5.196;2023-06-24T09:14:29;102421.00;;;38.30
20736;BMP180;10528;52.124;5.196;2023-06-24T09:16:59;102418.00;;;38.20
20736;BMP180;10528;52.124;5.196;2023-06-24T09:19:30;102419.00;;;38.00
20736;BMP180;10528;52.124;5.196;2023-06-24T09:22:08;102413.00;;;37.80
20736;BMP180;10528;52.124;5.196;2023-06-24T09:24:37;102424.00;;;37.60
20736;BMP180;10528;52.124;5.196;2023-06-24T09:27:04;102400.00;;;37.50
20736;BMP180;10528;52.124;5.196;2023-06-24T09:29:35;102403.00;;;37.30
20736;BMP180;10528;52.124;5.196;2023-06-24T09:32:06;102408.00;;;37.20
20736;BMP180;10528;52.124;5.196;2023-06-24T09:34:34;102403.00;;;37.10
20736;BMP180;10528;52.124;5.196;2023-06-24T09:37:02;102408.00;;;37.00
20736;BMP180;10528;52.124;5.196;2023-06-24T09:39:37;102408.00;;;36.80
20736;BMP180;10528;52.124;5.196;2023-06-24T09:42:06;102405.00;;;36.70
20736;BMP180;10528;52.124;5.196;2023-06-24T09:44:34;102406.00;;;36.60
20736;BMP180;10528;52.124;5.196;2023-06-24T09:47:01;102404.00;;;36.50
20736;BMP180;10528;52.124;5.196;2023-06-24T09:49:29;102396.00;;;36.50
20736;BMP180;10528;52.124;5.196;2023-06-24T09:51:58;102400.00;;;36.40
20736;BMP180;10528;52.124;5.196;2023-06-24T09:54:28;102397.00;;;36.30
20736;BMP180;10528;52.124;5.196;2023-06-24T09:57:02;102395.00;;;36.30
20736;BMP180;10528;52.124;5.196;2023-06-24T09:59:31;102385.00;;;36.30
20736;BMP180;10528;52.124;5.196;2023-06-24T10:02:03;102387.00;;;36.20
20736;BMP180;10528;52.124;5.196;2023-06-24T10:04:32;102388.00;;;36.00
20736;BMP180;10528;52.124;5.196;2023-06-24T10:06:59;102378.00;;;36.00
20736;BMP180;10528;52.124;5.196;2023-06-24T10:09:27;102399.00;;;35.90
20736;BMP180;10528;52.124;5.196;2023-06-24T10:11:54;102382.00;;;35.90
20736;BMP180;10528;52.124;5.196;2023-06-24T10:14:21;102386.00;;;35.80
20736;BMP180;10528;52.124;5.196;2023-06-24T10:16:48;102385.00;;;35.80
20736;BMP180;10528;52.124;5.196;2023-06-24T10:19:21;102390.00;;;35.90
20736;BMP180;10528;52.124;5.196;2023-06-24T10:22:01;102386.00;;;35.90
20736;BMP180;10528;52.124;5.196;2023-06-24T10:24:35;102383.00;;;35.90
20736;BMP180;10528;52.124;5.196;2023-06-24T10:27:20;102366.00;;;35.90
20736;BMP180;10528;52.124;5.196;2023-06-24T10:29:53;102381.00;;;35.70
20736;BMP180;10528;52.124;5.196;2023-06-24T10:32:23;102377.00;;;35.70
20736;BMP180;10528;52.124;5.196;2023-06-24T10:34:56;102372.00;;;35.80
20736;BMP180;10528;52.124;5.196;2023-06-24T10:37:32;102371.00;;;35.70
20736;BMP180;10528;52.124;5.196;2023-06-24T10:40:00;102373.00;;;35.80
20736;BMP180;10528;52.124;5.196;2023-06-24T10:47:40;102367.00;;;35.70
20736;BMP180;10528;52.124;5.196;2023-06-24T10:50:12;102367.00;;;35.70
20736;BMP180;10528;52.124;5.196;2023-06-24T10:52:49;102368.00;;;35.70
20736;BMP180;10528;52.124;5.196;2023-06-24T10:55:22;102360.00;;;35.80
20736;BMP180;10528;52.124;5.196;2023-06-24T10:57:49;102357.00;;;35.90
20736;BMP180;10528;52.124;5.196;2023-06-24T11:00:16;102359.00;;;35.90
20736;BMP180;10528;52.124;5.196;2023-06-24T11:02:44;102360.00;;;35.90
20736;BMP180;10528;52.124;5.196;2023-06-24T11:05:11;102353.00;;;36.00
20736;BMP180;10528;52.124;5.196;2023-06-24T11:07:39;102351.00;;;36.00
20736;BMP180;10528;52.124;5.196;2023-06-24T11:10:14;102355.00;;;36.10
20736;BMP180;10528;52.124;5.196;2023-06-24T11:12:43;102354.00;;;36.20
20736;BMP180;10528;52.124;5.196;2023-06-24T11:15:12;102347.00;;;36.00
20736;BMP180;10528;52.124;5.196;2023-06-24T11:17:41;102346.00;;;36.20
20736;BMP180;10528;52.124;5.196;2023-06-24T11:20:12;102346.00;;;35.90
20736;BMP180;10528;52.124;5.196;2023-06-24T11:22:40;102349.00;;;36.00
20736;BMP180;10528;52.124;5.196;2023-06-24T11:25:19;102339.00;;;36.20
20736;BMP180;10528;52.124;5.196;2023-06-24T11:27:46;102347.00;;;36.30
20736;BMP180;10528;52.124;5.196;2023-06-24T11:30:13;102344.00;;;36.40
20736;BMP180;10528;52.124;5.196;2023-06-24T11:32:44;102337.00;;;36.40
20736;BMP180;10528;52.124;5.196;2023-06-24T11:35:13;102339.00;;;36.50
20736;BMP180;10528;52.124;5.196;2023-06-24T11:37:44;102349.00;;;36.40
20736;BMP180;10528;52.124;5.196;2023-06-24T11:40:16;102341.00;;;36.50
20736;BMP180;10528;52.124;5.196;2023-06-24T11:42:45;102333.00;;;36.40
20736;BMP180;10528;52.124;5.196;2023-06-24T11:45:14;102340.00;;;36.60
20736;BMP180;10528;52.124;5.196;2023-06-24T11:47:43;102335.00;;;36.60
20736;BMP180;10528;52.124;5.196;2023-06-24T11:50:10;102335.00;;;36.60
20736;BMP180;10528;52.124;5.196;2023-06-24T11:52:48;102333.00;;;36.50
20736;BMP180;10528;52.124;5.196;2023-06-24T11:55:27;102332.00;;;36.40
20736;BMP180;10528;52.124;5.196;2023-06-24T11:58:00;102331.00;;;36.30
20736;BMP180;10528;52.124;5.196;2023-06-24T12:00:39;102331.00;;;36.20
20736;BMP180;10528;52.124;5.196;2023-06-24T12:03:09;102314.00;;;36.30
20736;BMP180;10528;52.124;5.196;2023-06-24T12:05:39;102325.00;;;36.40
20736;BMP180;10528;52.124;5.196;2023-06-24T12:08:12;102322.00;;;36.40
20736;BMP180;10528;52.124;5.196;2023-06-24T12:10:44;102315.00;;;36.40
20736;BMP180;10528;52.124;5.196;2023-06-24T12:13:11;102312.00;;;36.50
20736;BMP180;10528;52.124;5.196;2023-06-24T12:15:38;102311.00;;;36.40
20736;BMP180;10528;52.124;5.196;2023-06-24T12:18:06;102317.00;;;36.40
20736;BMP180;10528;52.124;5.196;2023-06-24T12:20:33;102313.00;;;36.40
20736;BMP180;10528;52.124;5.196;2023-06-24T12:23:05;102317.00;;;36.50
20736;BMP180;10528;52.124;5.196;2023-06-24T12:25:32;102318.00;;;36.30
20736;BMP180;10528;52.124;5.196;2023-06-24T12:27:59;102314.00;;;36.40
20736;BMP180;10528;52.124;5.196;2023-06-24T12:30:27;102305.00;;;36.40
20736;BMP180;10528;52.124;5.196;2023-06-24T12:32:55;102302.00;;;36.40
20736;BMP180;10528;52.124;5.196;2023-06-24T12:35:23;102310.00;;;36.30
20736;BMP180;10528;52.124;5.196;2023-06-24T12:37:53;102294.00;;;36.20
20736;BMP180;10528;52.124;5.196;2023-06-24T12:40:21;102309.00;;;36.20
20736;BMP180;10528;52.124;5.196;2023-06-24T12:42:47;102300.00;;;36.10
20736;BMP180;10528;52.124;5.196;2023-06-24T12:45:14;102305.00;;;36.00
20736;BMP180;10528;52.124;5.196;2023-06-24T12:47:41;102301.00;;;35.90
20736;BMP180;10528;52.124;5.196;2023-06-24T12:50:09;102298.00;;;35.80
20736;BMP180;10528;52.124;5.196;2023-06-24T12:52:37;102289.00;;;35.70
20736;BMP180;10528;52.124;5.196;2023-06-24T12:55:06;102294.00;;;35.70
20736;BMP180;10528;52.124;5.196;2023-06-24T12:57:35;102293.00;;;35.70
20736;BMP180;10528;52.124;5.196;2023-06-24T13:00:04;102283.00;;;35.70
20736;BMP180;10528;52.124;5.196;2023-06-24T13:02:36;102296.00;;;35.70
20736;BMP180;10528;52.124;5.196;2023-06-24T13:05:03;102284.00;;;35.70
20736;BMP180;10528;52.124;5.196;2023-06-24T13:07:30;102287.00;;;35.80
20736;BMP180;10528;52.124;5.196;2023-06-24T13:09:58;102288.00;;;35.80
20736;BMP180;10528;52.124;5.196;2023-06-24T13:12:26;102285.00;;;35.80
20736;BMP180;10528;52.124;5.196;2023-06-24T13:14:53;102280.00;;;35.90
20736;BMP180;10528;52.124;5.196;2023-06-24T13:17:20;102292.00;;;36.00
20736;BMP180;10528;52.124;5.196;2023-06-24T13:19:47;102283.00;;;36.00
20736;BMP180;10528;52.124;5.196;2023-06-24T13:22:14;102269.00;;;36.00
20736;BMP180;10528;52.124;5.196;2023-06-24T13:24:41;102277.00;;;36.00
20736;BMP180;10528;52.124;5.196;2023-06-24T13:27:08;102277.00;;;36.00
20736;BMP180;10528;52.124;5.196;2023-06-24T13:29:35;102274.00;;;35.90
20736;BMP180;10528;52.124;5.196;2023-06-24T13:32:02;102269.00;;;35.90
20736;BMP180;10528;52.124;5.196;2023-06-24T13:34:29;102275.00;;;35.90
20736;BMP180;10528;52.124;5.196;2023-06-24T13:36:57;102276.00;;;35.90
20736;BMP180;10528;52.124;5.196;2023-06-24T13:39:24;102270.00;;;35.80
20736;BMP180;10528;52.124;5.196;2023-06-24T13:41:51;102272.00;;;35.80
20736;BMP180;10528;52.124;5.196;2023-06-24T13:44:19;102268.00;;;35.80
20736;BMP180;10528;52.124;5.196;2023-06-24T13:46:46;102272.00;;;35.80
20736;BMP180;10528;52.124;5.196;2023-06-24T13:49:13;102270.00;;;35.80
20736;BMP180;10528;52.124;5.196;2023-06-24T13:51:40;102272.00;;;35.80
20736;BMP180;10528;52.124;5.196;2023-06-24T13:54:07;102274.00;;;35.70
20736;BMP180;10528;52.124;5.196;2023-06-24T13:56:34;102274.00;;;35.70
20736;BMP180;10528;52.124;5.196;2023-06-24T13:59:01;102271.00;;;35.70
20736;BMP180;10528;52.124;5.196;2023-06-24T14:01:29;102267.00;;;35.60
20736;BMP180;10528;52.124;5.196;2023-06-24T14:03:56;102262.00;;;35.60
20736;BMP180;10528;52.124;5.196;2023-06-24T14:06:24;102252.00;;;35.60
20736;BMP180;10528;52.124;5.196;2023-06-24T14:08:51;102251.00;;;35.60
20736;BMP180;10528;52.124;5.196;2023-06-24T14:11:19;102251.00;;;35.50
20736;BMP180;10528;52.124;5.196;2023-06-24T14:13:46;102257.00;;;35.50
20736;BMP180;10528;52.124;5.196;2023-06-24T14:16:13;102255.00;;;35.50
20736;BMP180;10528;52.124;5.196;2023-06-24T14:18:40;102249.00;;;35.50
20736;BMP180;10528;52.124;5.196;2023-06-24T14:21:08;102255.00;;;35.50
20736;BMP180;10528;52.124;5.196;2023-06-24T14:23:35;102253.00;;;35.50